createdAt,value
2022-10-06T00:01:31.379Z,99634.13
2022-10-06T00:04:00.948Z,99629.63
2022-10-06T00:06:29.134Z,99633.28
2022-10-06T00:08:57.530Z,99640.38
2022-10-06T00:11:26.698Z,99649.41
2022-10-06T00:13:54.995Z,99642.38
2022-10-06T00:16:23.708Z,99647.75
2022-10-06T00:18:52.127Z,99654.97
2022-10-06T00:21:21.849Z,99665.53
2022-10-06T00:23:49.980Z,99661.00
2022-10-06T00:26:18.125Z,99670.91
2022-10-06T00:28:48.357Z,99676.97
2022-10-06T00:31:17.437Z,99674.28
2022-10-06T00:33:45.577Z,99692.06
2022-10-06T00:36:13.759Z,99686.22
2022-10-06T00:38:43.285Z,99690.41
2022-10-06T00:41:13.857Z,99690.41
2022-10-06T00:43:46.013Z,99686.69
2022-10-06T00:46:19.400Z,99698.66
2022-10-06T00:48:52.111Z,99707.38
2022-10-06T00:51:21.514Z,99701.16
2022-10-06T00:53:51.999Z,99704.88
2022-10-06T00:56:20.240Z,99721.81
2022-10-06T00:58:50.218Z,99721.81
2022-10-06T01:01:18.785Z,99721.00
2022-10-06T01:03:50.970Z,99733.41
2022-10-06T01:06:19.088Z,99727.06
2022-10-06T01:08:47.954Z,99704.78
2022-10-06T01:11:18.185Z,99749.53
2022-10-06T01:13:47.555Z,99740.81
2022-10-06T01:16:21.767Z,99755.28
2022-10-06T01:18:50.611Z,99754.25
2022-10-06T01:21:26.419Z,99751.56
2022-10-06T01:23:57.257Z,99756.94
2022-10-06T01:26:26.719Z,99763.34
2022-10-06T01:28:55.201Z,99770.38
2022-10-06T01:31:23.865Z,99783.81
2022-10-06T01:33:55.538Z,99772.41
2022-10-06T01:36:23.811Z,99778.44
2022-10-06T01:38:51.894Z,99787.53
2022-10-06T01:41:22.628Z,99789.19
2022-10-06T01:43:50.941Z,99794.56
2022-10-06T01:46:19.158Z,99799.94
2022-10-06T01:48:47.435Z,99803.66
2022-10-06T01:51:16.507Z,99805.31
2022-10-06T01:53:44.727Z,99812.75
2022-10-06T01:56:13.829Z,99824.13
2022-10-06T01:58:43.315Z,99828.53
2022-10-06T02:01:11.826Z,99825.16
2022-10-06T02:03:40.857Z,99826.81
2022-10-06T02:06:09.586Z,99803.03
2022-10-06T02:08:38.216Z,99832.88
2022-10-06T02:11:09.159Z,99832.53
2022-10-06T02:13:38.106Z,99841.28
2022-10-06T02:16:09.203Z,99846.66
2022-10-06T02:18:37.781Z,99841.28
2022-10-06T02:21:06.329Z,99846.66
2022-10-06T02:23:34.977Z,99856.72
2022-10-06T02:26:04.370Z,99854.03
2022-10-06T02:28:32.995Z,99859.41
2022-10-06T02:31:02.935Z,99859.41
2022-10-06T02:33:33.091Z,99863.13
2022-10-06T02:36:01.434Z,99847.00
2022-10-06T02:38:30.761Z,99868.50
2022-10-06T02:40:59.737Z,99859.41
2022-10-06T02:43:29.035Z,99865.66
2022-10-06T02:45:57.877Z,99863.97
2022-10-06T02:48:26.946Z,99864.78
2022-10-06T02:50:59.121Z,99879.25
2022-10-06T02:53:27.585Z,99884.63
2022-10-06T02:56:00.786Z,99887.31
2022-10-06T02:58:30.353Z,99894.38
2022-10-06T03:01:03.265Z,99897.06
2022-10-06T03:03:32.064Z,99901.09
2022-10-06T03:06:02.553Z,99900.75
2022-10-06T03:08:31.025Z,99901.78
2022-10-06T03:11:03.278Z,99893.72
2022-10-06T03:13:32.489Z,99902.59
2022-10-06T03:16:00.703Z,99899.09
2022-10-06T03:18:31.823Z,99901.94
2022-10-06T03:21:05.360Z,99914.38
2022-10-06T03:23:33.461Z,99912.69
2022-10-06T03:26:01.546Z,99911.84
2022-10-06T03:28:30.565Z,99920.59
2022-10-06T03:31:03.105Z,99922.59
2022-10-06T03:33:31.808Z,99894.03
2022-10-06T03:36:02.377Z,99928.66
2022-10-06T03:38:32.607Z,99912.53
2022-10-06T03:41:05.138Z,99909.84
2022-10-06T03:43:33.314Z,99919.75
2022-10-06T03:46:02.246Z,99915.22
2022-10-06T03:48:31.352Z,99909.84
2022-10-06T03:51:02.968Z,99903.09
2022-10-06T03:53:31.627Z,99905.47
2022-10-06T03:56:04.954Z,99908.13
2022-10-06T03:58:35.413Z,99908.13
2022-10-06T04:01:05.385Z,99908.13
2022-10-06T04:03:34.071Z,99894.72
2022-10-06T04:06:06.427Z,99906.47
2022-10-06T04:08:36.055Z,99908.13
2022-10-06T04:11:07.997Z,99904.59
2022-10-06T04:13:36.641Z,99914.84
2022-10-06T04:16:12.127Z,99863.63
2022-10-06T04:18:40.272Z,99899.06
2022-10-06T04:21:09.859Z,99901.75
2022-10-06T04:23:38.089Z,99896.38
2022-10-06T04:26:10.064Z,99912.50
2022-10-06T04:28:39.320Z,99913.53
2022-10-06T04:31:13.071Z,99932.69
2022-10-06T04:33:41.785Z,99933.00
2022-10-06T04:36:15.659Z,99895.06
2022-10-06T04:38:44.021Z,99931.34
2022-10-06T04:41:13.871Z,99934.69
2022-10-06T04:43:42.512Z,99928.50
2022-10-06T04:46:37.576Z,99945.09
2022-10-06T04:48:59.905Z,99932.69
2022-10-06T04:51:30.179Z,99948.81
2022-10-06T04:53:58.295Z,99974.03
2022-10-06T04:56:27.913Z,99957.88
2022-10-06T04:58:57.583Z,99966.94
2022-10-06T05:01:27.633Z,99969.63
2022-10-06T05:03:57.222Z,99981.22
2022-10-06T05:06:26.860Z,99956.38
2022-10-06T05:08:57.857Z,99972.31
2022-10-06T05:11:26.666Z,99994.84
2022-10-06T05:13:58.807Z,100036.81
2022-10-06T05:16:29.478Z,100019.03
2022-10-06T05:18:57.739Z,100019.38
2022-10-06T05:21:27.584Z,100022.72
2022-10-06T05:23:57.856Z,100022.72
2022-10-06T05:26:29.902Z,100017.53
2022-10-06T05:28:59.331Z,100023.72
2022-10-06T05:31:28.737Z,100031.78
2022-10-06T05:33:58.255Z,100038.19
2022-10-06T05:36:28.763Z,100017.31
2022-10-06T05:38:58.665Z,100062.38
2022-10-06T05:41:29.004Z,100065.06
2022-10-06T05:43:58.314Z,100069.75
2022-10-06T05:46:28.734Z,100066.06
2022-10-06T05:48:58.356Z,100073.13
2022-10-06T05:51:30.839Z,100073.44
2022-10-06T05:54:00.735Z,100071.44
2022-10-06T05:56:30.971Z,100078.50
2022-10-06T05:59:00.367Z,100092.25
2022-10-06T06:01:30.007Z,100098.31
2022-10-06T06:04:00.613Z,100100.31
2022-10-06T06:06:30.561Z,100114.47
2022-10-06T06:09:02.015Z,100132.25
2022-10-06T06:11:32.190Z,100134.25
2022-10-06T06:14:02.446Z,100154.78
2022-10-06T06:16:31.178Z,100122.78
2022-10-06T06:19:00.082Z,100161.13
2022-10-06T06:21:28.739Z,100161.13
2022-10-06T06:23:57.753Z,100177.25
2022-10-06T06:26:28.566Z,100184.50
2022-10-06T06:29:00.275Z,100173.19
2022-10-06T06:31:31.460Z,100183.66
2022-10-06T06:34:02.331Z,100195.25
2022-10-06T06:36:35.707Z,100202.47
2022-10-06T06:39:06.495Z,100220.28
2022-10-06T06:41:38.361Z,100219.44
2022-10-06T06:44:08.356Z,100225.66
2022-10-06T06:46:37.057Z,100233.72
2022-10-06T06:49:06.306Z,100240.94
2022-10-06T06:51:35.407Z,100240.09
2022-10-06T06:54:03.480Z,100237.72
2022-10-06T06:56:35.462Z,100259.94
2022-10-06T06:59:08.962Z,100257.25
2022-10-06T07:01:37.569Z,100248.09
2022-10-06T07:04:06.148Z,100270.69
2022-10-06T07:06:34.506Z,100242.72
2022-10-06T07:09:02.859Z,100282.41
2022-10-06T07:11:32.873Z,100292.19
2022-10-06T07:14:05.159Z,100288.81
2022-10-06T07:16:51.486Z,100310.16
2022-10-06T07:19:38.499Z,100319.88
2022-10-06T07:22:32.609Z,100317.34
2022-10-06T07:25:11.742Z,100302.81
2022-10-06T07:27:43.166Z,100329.13
2022-10-06T07:30:18.043Z,100338.19
2022-10-06T07:32:49.952Z,100346.25
2022-10-06T07:35:20.404Z,100357.00
2022-10-06T07:37:49.201Z,100370.44
2022-10-06T07:40:18.628Z,100367.75
2022-10-06T07:42:52.206Z,100374.81
2022-10-06T07:45:41.386Z,100389.88
2022-10-06T07:48:14.576Z,100392.25
2022-10-06T07:50:43.562Z,100401.84
2022-10-06T07:53:11.778Z,100403.69
2022-10-06T07:55:41.640Z,100408.22
2022-10-06T07:58:15.099Z,100418.13
2022-10-06T08:00:45.591Z,100418.13
2022-10-06T08:03:18.270Z,100426.19
2022-10-06T08:05:46.887Z,100433.25
2022-10-06T08:08:15.421Z,100437.97
2022-10-06T08:10:43.537Z,100445.00
2022-10-06T08:13:11.758Z,100405.38
2022-10-06T08:15:39.921Z,100464.84
2022-10-06T08:18:27.157Z,100466.50
2022-10-06T08:20:58.305Z,100478.94
2022-10-06T08:23:26.573Z,100471.88
2022-10-06T08:25:56.522Z,100493.38
2022-10-06T08:28:24.735Z,100507.84
2022-10-06T08:30:52.906Z,100504.44
2022-10-06T08:33:22.632Z,100499.78
2022-10-06T08:35:51.709Z,100515.75
2022-10-06T08:38:20.055Z,100509.53
2022-10-06T08:40:48.488Z,100523.97
2022-10-06T08:43:20.760Z,100512.19
2022-10-06T08:45:49.472Z,100504.22
2022-10-06T08:48:22.769Z,100510.13
2022-10-06T08:51:02.285Z,100523.66
2022-10-06T08:53:39.489Z,100533.72
2022-10-06T08:56:18.013Z,100527.31
2022-10-06T08:58:53.311Z,100545.16
2022-10-06T09:01:24.193Z,100545.16
2022-10-06T09:03:55.629Z,100532.69
2022-10-06T09:06:47.271Z,100548.81
2022-10-06T09:09:36.767Z,100545.47
2022-10-06T09:12:13.247Z,100545.47
2022-10-06T09:14:45.477Z,100550.84
2022-10-06T09:17:18.634Z,100550.84
2022-10-06T09:19:51.539Z,100550.84
2022-10-06T09:22:23.661Z,100566.97
2022-10-06T09:24:56.404Z,100570.63
2022-10-06T09:27:29.211Z,100575.03
2022-10-06T09:29:57.923Z,100584.94
2022-10-06T09:32:29.747Z,100593.84
2022-10-06T09:35:00.843Z,100576.88
2022-10-06T09:37:30.514Z,100619.00
2022-10-06T09:39:58.974Z,100602.88
2022-10-06T09:42:31.749Z,100602.88
2022-10-06T09:45:02.414Z,100629.78
2022-10-06T09:47:40.481Z,100597.94
2022-10-06T09:50:22.151Z,100620.88
2022-10-06T09:53:16.333Z,100639.69
2022-10-06T09:55:54.620Z,100635.16
2022-10-06T09:58:37.870Z,100645.91
2022-10-06T10:01:09.577Z,100636.84
2022-10-06T10:04:15.357Z,100643.66
2022-10-06T10:06:40.281Z,100652.97
2022-10-06T10:09:25.307Z,100660.03
2022-10-06T10:12:28.307Z,100663.75
2022-10-06T10:14:59.642Z,100668.25
2022-10-06T10:17:38.838Z,100666.44
2022-10-06T10:20:23.383Z,100676.47
2022-10-06T10:22:52.793Z,100680.69
2022-10-06T10:25:36.765Z,100681.13
2022-10-06T10:28:17.560Z,100678.16
2022-10-06T10:30:52.738Z,100689.91
2022-10-06T10:33:29.254Z,100690.91
2022-10-06T10:35:58.564Z,100691.22
2022-10-06T10:38:41.048Z,100696.28
2022-10-06T10:41:15.963Z,100697.97
2022-10-06T10:43:51.307Z,100696.28
2022-10-06T10:46:25.483Z,100724.00
2022-10-06T10:48:59.377Z,100729.38
2022-10-06T10:51:32.971Z,100712.41
2022-10-06T10:54:06.110Z,100724.84
2022-10-06T10:56:35.658Z,100731.22
2022-10-06T10:59:16.920Z,100719.47
2022-10-06T11:01:54.865Z,100729.38
2022-10-06T11:04:23.136Z,100725.84
2022-10-06T11:07:01.853Z,100738.28
2022-10-06T11:09:38.128Z,100727.53
2022-10-06T11:12:18.639Z,100735.59
2022-10-06T11:14:58.182Z,100726.81
2022-10-06T11:17:44.305Z,100735.59
2022-10-06T11:20:40.198Z,100742.66
2022-10-06T11:23:31.970Z,100745.34
2022-10-06T11:26:10.983Z,100758.78
2022-10-06T11:28:46.367Z,100736.19
2022-10-06T11:31:26.391Z,100759.66
2022-10-06T11:33:56.225Z,100769.53
2022-10-06T11:36:36.049Z,100771.25
2022-10-06T11:39:14.968Z,100770.53
2022-10-06T11:41:48.440Z,100766.19
2022-10-06T11:44:27.575Z,100785.66
2022-10-06T11:47:00.028Z,100762.06
2022-10-06T11:49:47.762Z,100763.50
2022-10-06T11:52:55.954Z,100778.59
2022-10-06T11:55:28.931Z,100773.22
2022-10-06T11:58:40.775Z,100787.69
2022-10-06T12:01:04.530Z,100789.38
2022-10-06T12:04:10.039Z,100794.75
2022-10-06T12:07:04.320Z,100810.88
2022-10-06T12:09:54.745Z,100780.97
2022-10-06T12:13:38.537Z,100816.25
2022-10-06T12:19:19.870Z,100814.84
2022-10-06T12:22:00.634Z,100837.03
2022-10-06T12:24:42.932Z,100805.28
2022-10-06T12:27:40.930Z,100773.91
2022-10-06T12:30:22.672Z,100839.72
2022-10-06T12:32:57.057Z,100829.81
2022-10-06T12:35:37.121Z,100839.72
2022-10-06T12:38:06.407Z,100839.72
2022-10-06T12:40:49.728Z,100837.88
2022-10-06T12:43:53.906Z,100834.34
2022-10-06T12:46:35.694Z,100852.34
2022-10-06T12:49:22.204Z,100841.44
2022-10-06T12:51:54.739Z,100833.97
2022-10-06T12:54:33.606Z,100855.56
2022-10-06T12:57:03.414Z,100850.19
2022-10-06T12:59:33.944Z,100855.56
2022-10-06T13:02:04.009Z,100845.09
2022-10-06T13:04:37.712Z,100860.09
2022-10-06T13:07:12.509Z,100854.72
2022-10-06T13:09:41.895Z,100852.19
2022-10-06T13:12:31.372Z,100862.66
2022-10-06T13:15:22.371Z,100867.16
2022-10-06T13:17:53.222Z,100874.22
2022-10-06T13:20:39.433Z,100874.38
2022-10-06T13:23:28.864Z,100884.97
2022-10-06T13:25:59.370Z,100883.28
2022-10-06T13:28:31.118Z,100884.16
2022-10-06T13:33:33.866Z,100892.22
2022-10-06T13:36:03.952Z,100901.13
2022-10-06T13:38:35.187Z,100901.13
2022-10-06T13:41:05.382Z,100907.34
2022-10-06T13:43:39.863Z,100899.28
2022-10-06T13:46:10.793Z,100897.44
2022-10-06T13:48:46.472Z,100892.06
2022-10-06T13:51:25.756Z,100894.91
2022-10-06T13:53:54.683Z,100911.88
2022-10-06T13:59:38.987Z,100906.50
2022-10-06T14:02:33.679Z,100907.63
2022-10-06T14:05:27.173Z,100905.66
2022-10-06T14:08:00.274Z,100892.38
2022-10-06T14:10:33.909Z,100902.25
2022-10-06T14:13:02.551Z,100898.56
2022-10-06T14:15:40.660Z,100898.56
2022-10-06T14:18:08.780Z,100904.81
2022-10-06T14:20:47.151Z,100873.41
2022-10-06T14:23:39.123Z,100890.34
2022-10-06T14:26:07.755Z,100876.25
2022-10-06T14:28:38.411Z,100876.09
2022-10-06T14:31:10.769Z,100869.72
2022-10-06T14:33:41.873Z,100875.09
2022-10-06T14:36:17.489Z,100866.88
2022-10-06T14:38:49.440Z,100889.38
2022-10-06T14:41:19.972Z,100875.09
2022-10-06T14:43:48.872Z,100889.53
2022-10-06T14:46:17.021Z,100886.69
2022-10-06T14:48:45.190Z,100909.03
2022-10-06T14:51:13.313Z,100907.19
2022-10-06T14:53:41.586Z,100926.88
2022-10-06T14:56:14.440Z,100916.13
2022-10-06T14:58:44.927Z,100921.50
2022-10-06T15:01:17.016Z,100924.47
2022-10-06T15:03:49.081Z,100922.31
2022-10-06T15:06:35.014Z,100932.25
2022-10-06T15:09:03.105Z,100929.56
2022-10-06T15:11:32.755Z,100928.84
2022-10-06T15:14:01.164Z,100928.84
2022-10-06T15:16:30.440Z,100930.53
2022-10-06T15:19:00.963Z,100923.47
2022-10-06T15:21:31.467Z,100910.75
2022-10-06T15:24:01.559Z,100943.97
2022-10-06T15:26:46.814Z,100938.59
2022-10-06T15:29:16.990Z,100932.53
2022-10-06T15:31:46.556Z,100948.38
2022-10-06T15:34:17.132Z,100842.31
2022-10-06T15:36:45.261Z,100937.63
2022-10-06T15:39:16.162Z,100943.00
2022-10-06T15:41:45.418Z,100937.63
2022-10-06T15:44:15.535Z,100940.31
2022-10-06T15:46:45.588Z,100926.59
2022-10-06T15:49:15.247Z,100932.25
2022-10-06T15:51:47.362Z,100930.25
2022-10-06T15:54:19.181Z,100925.44
2022-10-06T15:56:48.600Z,100933.38
2022-10-06T15:59:19.134Z,100919.22
2022-10-06T16:01:48.009Z,100935.34
2022-10-06T16:04:25.371Z,100931.97
2022-10-06T16:06:55.992Z,100932.78
2022-10-06T16:09:25.709Z,100949.78
2022-10-06T16:11:54.792Z,100950.06
2022-10-06T16:14:24.759Z,100953.47
2022-10-06T16:16:54.129Z,100965.91
2022-10-06T16:19:22.200Z,100975.81
2022-10-06T16:21:53.429Z,100982.03
2022-10-06T16:24:24.609Z,100986.56
2022-10-06T16:26:53.808Z,100991.13
2022-10-06T16:29:24.327Z,100996.50
2022-10-06T16:31:53.094Z,100980.38
2022-10-06T16:34:21.909Z,100988.72
2022-10-06T16:36:51.410Z,100989.41
2022-10-06T16:39:21.014Z,100996.50
2022-10-06T16:41:49.931Z,100962.81
2022-10-06T16:44:18.594Z,101016.28
2022-10-06T16:46:48.174Z,101012.63
2022-10-06T16:49:16.489Z,101012.63
2022-10-06T16:51:46.924Z,101016.28
2022-10-06T16:54:18.352Z,100990.28
2022-10-06T16:56:48.197Z,101016.28
2022-10-06T16:59:18.052Z,101021.66
2022-10-06T17:01:48.411Z,101018.28
2022-10-06T17:04:18.640Z,101016.84
2022-10-06T17:06:48.524Z,101034.28
2022-10-06T17:09:18.967Z,101041.47
2022-10-06T17:11:49.322Z,101042.34
2022-10-06T17:14:17.878Z,101041.47
2022-10-06T17:16:49.670Z,101052.22
2022-10-06T17:19:20.672Z,101041.47
2022-10-06T17:21:54.074Z,101036.09
2022-10-06T17:24:28.867Z,100980.88
2022-10-06T17:26:58.627Z,101044.00
2022-10-06T17:29:27.728Z,101056.88
2022-10-06T17:31:59.288Z,101068.34
2022-10-06T17:34:33.489Z,101084.50
2022-10-06T17:37:03.978Z,101066.69
2022-10-06T17:39:32.167Z,101077.44
2022-10-06T17:42:00.319Z,101082.81
2022-10-06T17:44:29.363Z,101073.03
2022-10-06T17:47:00.790Z,101057.88
2022-10-06T17:49:30.587Z,101079.13
2022-10-06T17:51:58.859Z,101066.38
2022-10-06T17:54:28.393Z,101076.88
2022-10-06T17:56:58.297Z,101065.81
2022-10-06T17:59:30.497Z,101075.56
2022-10-06T18:02:02.802Z,101080.09
2022-10-06T18:04:31.798Z,101070.03
2022-10-06T18:07:00.628Z,101079.41
2022-10-06T18:09:29.359Z,101085.63
2022-10-06T18:12:02.310Z,101089.31
2022-10-06T18:14:33.759Z,101097.38
2022-10-06T18:17:04.295Z,101082.25
2022-10-06T18:19:34.103Z,101098.66
2022-10-06T18:22:10.117Z,101094.69
2022-10-06T18:24:39.955Z,101103.75
2022-10-06T18:27:09.045Z,101101.06
2022-10-06T18:29:39.710Z,101119.88
2022-10-06T18:33:31.062Z,101106.44
2022-10-06T18:37:56.670Z,101106.72
2022-10-06T18:40:25.378Z,101111.09
2022-10-06T18:43:00.856Z,101105.72
2022-10-06T18:45:46.545Z,101102.31
2022-10-06T18:48:34.311Z,101103.03
2022-10-06T18:51:02.795Z,101094.97
2022-10-06T18:53:33.523Z,101104.03
2022-10-06T18:56:01.893Z,101117.34
2022-10-06T18:58:29.993Z,101105.72
2022-10-06T19:00:58.726Z,101115.91
2022-10-06T19:03:28.433Z,101110.25
2022-10-06T19:05:56.568Z,101116.47
2022-10-06T19:08:24.972Z,101125.53
2022-10-06T19:11:08.239Z,101111.97
2022-10-06T19:13:37.195Z,101118.44
2022-10-06T19:16:05.495Z,101109.69
2022-10-06T19:18:40.706Z,101115.06
2022-10-06T19:21:10.026Z,101125.81
2022-10-06T19:23:40.116Z,101123.13
2022-10-06T19:26:11.002Z,101122.41
2022-10-06T19:28:39.909Z,101131.19
2022-10-06T19:31:11.476Z,101133.88
2022-10-06T19:33:43.309Z,101127.78
2022-10-06T19:36:11.621Z,101130.03
2022-10-06T19:38:40.893Z,101140.22
2022-10-06T19:41:26.782Z,101136.56
2022-10-06T19:43:58.133Z,101121.56
2022-10-06T19:46:26.337Z,101138.41
2022-10-06T19:48:56.852Z,101147.31
2022-10-06T19:51:26.041Z,101076.50
2022-10-06T19:53:54.147Z,101136.84
2022-10-06T19:56:25.408Z,101136.84
2022-10-06T19:58:53.851Z,101146.75
2022-10-06T20:01:22.026Z,101136.00
2022-10-06T20:03:50.268Z,101135.13
2022-10-06T20:06:20.717Z,101145.88
2022-10-06T20:08:54.229Z,101146.16
2022-10-06T20:11:23.989Z,101146.16
2022-10-06T20:13:52.320Z,101136.84
2022-10-06T20:16:21.474Z,101073.38
2022-10-06T20:18:51.599Z,101141.63
2022-10-06T20:21:25.803Z,101109.63
2022-10-06T20:23:56.830Z,101156.63
2022-10-06T20:26:26.769Z,101147.59
2022-10-06T20:28:55.454Z,101142.22
2022-10-06T20:31:26.440Z,101131.47
2022-10-06T20:33:56.422Z,101136.84
2022-10-06T20:36:28.923Z,101147.59
2022-10-06T20:39:16.190Z,101136.84
2022-10-06T20:41:45.444Z,101148.44
2022-10-06T20:44:15.706Z,101150.28
2022-10-06T20:46:44.884Z,101135.69
2022-10-06T20:49:17.613Z,101115.88
2022-10-06T20:51:51.525Z,101140.50
2022-10-06T20:54:21.094Z,101151.25
2022-10-06T20:56:52.245Z,101158.63
2022-10-06T20:59:25.196Z,101152.66
2022-10-06T21:01:56.208Z,101161.19
2022-10-06T21:04:24.365Z,101156.91
2022-10-06T21:06:53.899Z,101161.19
2022-10-06T21:09:23.093Z,101160.31
2022-10-06T21:11:51.361Z,101160.31
2022-10-06T21:14:20.003Z,101162.28
2022-10-06T21:16:49.952Z,101169.66
2022-10-06T21:19:19.524Z,101172.75
2022-10-06T21:21:50.651Z,101171.78
2022-10-06T21:24:20.498Z,101174.50
2022-10-06T21:26:49.310Z,101137.50
2022-10-06T21:29:17.624Z,101176.44
2022-10-06T21:31:46.293Z,101177.88
2022-10-06T21:34:15.499Z,101179.72
2022-10-06T21:36:44.427Z,101186.94
2022-10-06T21:39:14.039Z,101177.88
2022-10-06T21:41:44.719Z,101183.25
2022-10-06T21:44:14.341Z,101176.19
2022-10-06T21:46:46.402Z,101184.97
2022-10-06T21:49:16.436Z,101166.28
2022-10-06T21:51:46.763Z,101149.28
2022-10-06T21:54:15.526Z,101170.78
2022-10-06T21:56:45.536Z,101176.19
2022-10-06T21:59:14.027Z,101175.31
2022-10-06T22:01:45.996Z,101181.56
2022-10-06T22:04:15.302Z,101164.56
2022-10-06T22:06:47.520Z,101174.50
2022-10-06T22:09:17.787Z,101176.19
2022-10-06T22:11:47.463Z,101180.69
2022-10-06T22:14:17.754Z,101178.13
2022-10-06T22:16:46.259Z,101173.75
2022-10-06T22:19:16.328Z,101181.56
2022-10-06T22:21:46.382Z,101149.81
2022-10-06T22:24:16.619Z,101182.56
2022-10-06T22:26:45.743Z,101169.09
2022-10-06T22:29:16.836Z,101183.50
2022-10-06T22:31:47.383Z,101162.56
2022-10-06T22:34:17.961Z,101177.19
2022-10-06T22:36:46.035Z,101169.09
2022-10-06T22:39:14.166Z,101170.22
2022-10-06T22:41:42.259Z,101173.63
2022-10-06T22:44:10.347Z,101176.31
2022-10-06T22:46:39.920Z,101176.19
2022-10-06T22:49:08.296Z,101170.78
2022-10-06T22:51:36.667Z,101162.00
2022-10-06T22:54:05.391Z,101158.34
2022-10-06T22:56:34.916Z,101125.47
2022-10-06T22:59:03.216Z,101162.00
2022-10-06T23:01:31.585Z,101157.50
2022-10-06T23:04:01.223Z,101154.94
2022-10-06T23:06:31.393Z,101138.81
2022-10-06T23:09:00.074Z,101151.25
2022-10-06T23:11:28.688Z,101160.31
2022-10-06T23:13:57.011Z,101154.94
2022-10-06T23:16:25.226Z,101151.25
2022-10-06T23:18:53.397Z,101154.94
2022-10-06T23:21:27.405Z,101160.31
2022-10-06T23:23:59.337Z,101167.38
2022-10-06T23:26:28.391Z,101151.25
2022-10-06T23:28:58.621Z,101151.53
2022-10-06T23:31:29.816Z,101146.03
2022-10-06T23:33:58.555Z,101144.19
2022-10-06T23:36:33.218Z,101149.56
2022-10-06T23:39:01.567Z,101147.88
2022-10-06T23:41:29.643Z,101160.31
2022-10-06T23:43:57.748Z,101144.19
2022-10-06T23:46:25.839Z,101144.47
2022-10-06T23:48:54.030Z,101134.31
2022-10-06T23:51:22.095Z,101148.56
2022-10-06T23:53:51.613Z,101144.19
2022-10-06T23:56:20.926Z,101127.75
2022-10-06T23:58:49.407Z,101138.81
